createdAt,value
2023-03-26T00:01:21.444Z,7.30
2023-03-26T00:03:53.721Z,7.24
2023-03-26T00:06:26.556Z,7.21
2023-03-26T00:08:57.273Z,7.26
2023-03-26T00:11:27.633Z,7.28
2023-03-26T00:13:57.882Z,7.31
2023-03-26T00:16:28.070Z,7.31
2023-03-26T00:18:55.516Z,7.33
2023-03-26T00:21:28.413Z,7.34
2023-03-26T00:24:01.157Z,7.35
2023-03-26T00:26:29.849Z,7.34
2023-03-26T00:28:56.422Z,7.36
2023-03-26T00:31:23.389Z,7.37
2023-03-26T00:33:55.745Z,7.36
2023-03-26T00:36:25.878Z,7.35
2023-03-26T00:38:53.980Z,7.36
2023-03-26T00:41:26.448Z,7.33
2023-03-26T00:43:56.639Z,7.37
2023-03-26T00:46:24.310Z,7.34
2023-03-26T00:48:50.932Z,7.27
2023-03-26T00:51:20.812Z,7.30
2023-03-26T00:53:48.881Z,7.28
2023-03-26T00:56:16.066Z,7.21
2023-03-26T00:58:43.382Z,7.21
2023-03-26T01:01:16.580Z,7.15
2023-03-26T01:04:00.841Z,7.14
2023-03-26T01:06:36.041Z,7.04
2023-03-26T01:09:11.365Z,7.14
2023-03-26T01:11:37.940Z,7.06
2023-03-26T01:14:10.136Z,7.06
2023-03-26T01:16:47.540Z,7.01
2023-03-26T01:19:36.628Z,7.07
2023-03-26T01:22:03.160Z,7.01
2023-03-26T01:24:29.717Z,6.89
2023-03-26T01:27:21.023Z,6.82
2023-03-26T01:29:55.818Z,6.86
2023-03-26T01:32:33.247Z,6.80
2023-03-26T01:35:09.143Z,6.76
2023-03-26T01:37:58.866Z,6.79
2023-03-26T01:40:42.805Z,6.80
2023-03-26T01:43:33.861Z,6.80
2023-03-26T01:46:03.928Z,6.73
2023-03-26T01:48:33.634Z,6.79
2023-03-26T01:51:00.312Z,6.73
2023-03-26T01:53:27.448Z,6.73
2023-03-26T01:56:17.225Z,6.78
2023-03-26T01:58:53.096Z,6.73
2023-03-26T02:01:30.462Z,6.74
2023-03-26T02:04:08.904Z,6.82
2023-03-26T02:06:46.411Z,6.80
2023-03-26T02:09:18.352Z,6.77
2023-03-26T02:11:45.414Z,6.76
2023-03-26T02:14:15.106Z,6.76
2023-03-26T02:16:41.774Z,6.78
2023-03-26T02:19:15.858Z,6.79
2023-03-26T02:21:42.892Z,6.77
2023-03-26T02:24:09.539Z,6.82
2023-03-26T02:26:37.816Z,6.83
2023-03-26T02:29:04.917Z,6.70
2023-03-26T02:31:31.579Z,6.70
2023-03-26T02:33:58.562Z,6.65
2023-03-26T02:36:27.702Z,6.61
2023-03-26T02:38:55.924Z,6.58
2023-03-26T02:41:22.552Z,6.63
2023-03-26T02:43:49.195Z,6.56
2023-03-26T02:46:15.910Z,6.53
2023-03-26T02:48:42.692Z,6.53
2023-03-26T02:51:09.261Z,6.49
2023-03-26T02:53:37.645Z,6.42
2023-03-26T02:56:04.713Z,6.34
2023-03-26T02:58:31.322Z,6.43
2023-03-26T03:00:57.962Z,6.31
2023-03-26T03:03:26.424Z,6.41
2023-03-26T03:05:57.560Z,6.38
2023-03-26T03:08:26.825Z,6.35
2023-03-26T03:11:11.641Z,6.36
2023-03-26T03:13:38.271Z,6.33
2023-03-26T03:16:05.476Z,6.39
2023-03-26T03:18:35.103Z,6.31
2023-03-26T03:21:03.120Z,6.34
2023-03-26T03:23:29.779Z,6.30
2023-03-26T03:25:58.561Z,6.26
2023-03-26T03:28:25.836Z,6.26
2023-03-26T03:30:57.687Z,6.24
2023-03-26T03:33:24.469Z,6.23
2023-03-26T03:35:51.386Z,6.28
2023-03-26T03:38:17.994Z,6.28
2023-03-26T03:40:44.786Z,6.33
2023-03-26T03:43:11.391Z,6.28
2023-03-26T03:45:37.926Z,6.24
2023-03-26T03:48:04.874Z,6.22
2023-03-26T03:50:33.713Z,6.24
2023-03-26T03:53:02.203Z,6.15
2023-03-26T03:55:28.798Z,6.21
2023-03-26T03:57:56.344Z,6.15
2023-03-26T04:00:22.925Z,6.02
2023-03-26T04:02:49.873Z,6.01
2023-03-26T04:05:16.559Z,6.05
2023-03-26T04:07:44.066Z,5.98
2023-03-26T04:10:15.604Z,5.93
2023-03-26T04:12:42.175Z,5.94
2023-03-26T04:15:08.963Z,5.94
2023-03-26T04:17:42.959Z,6.00
2023-03-26T04:20:16.059Z,6.03
2023-03-26T04:22:44.103Z,6.01
2023-03-26T04:25:12.733Z,6.02
2023-03-26T04:27:41.799Z,6.01
2023-03-26T04:30:14.673Z,5.97
2023-03-26T04:32:43.097Z,6.01
2023-03-26T04:35:14.630Z,5.98
2023-03-26T04:37:42.291Z,5.99
2023-03-26T04:40:15.292Z,5.88
2023-03-26T04:42:46.302Z,5.97
2023-03-26T04:45:15.374Z,5.84
2023-03-26T04:47:42.108Z,5.86
2023-03-26T04:50:11.360Z,5.85
2023-03-26T04:52:38.436Z,5.80
2023-03-26T04:55:13.959Z,5.84
2023-03-26T04:57:46.578Z,5.80
2023-03-26T05:00:18.798Z,5.87
2023-03-26T05:02:46.089Z,5.79
2023-03-26T05:05:12.706Z,5.74
2023-03-26T05:07:39.366Z,5.79
2023-03-26T05:10:07.044Z,5.86
2023-03-26T05:12:33.696Z,5.91
2023-03-26T05:15:00.470Z,5.87
2023-03-26T05:17:30.998Z,5.87
2023-03-26T05:19:57.913Z,5.88
2023-03-26T05:22:24.545Z,5.96
2023-03-26T05:24:51.587Z,5.92
2023-03-26T05:27:20.368Z,6.04
2023-03-26T05:29:47.031Z,6.05
2023-03-26T05:32:13.567Z,5.98
2023-03-26T05:34:40.890Z,5.96
2023-03-26T05:37:09.302Z,6.07
2023-03-26T05:39:36.313Z,6.00
2023-03-26T05:42:03.771Z,6.11
2023-03-26T05:44:31.702Z,6.03
2023-03-26T05:46:58.259Z,6.17
2023-03-26T05:49:24.971Z,6.11
2023-03-26T05:51:53.187Z,6.17
2023-03-26T05:54:21.223Z,6.25
2023-03-26T05:56:47.979Z,6.21
2023-03-26T05:59:15.515Z,6.27
2023-03-26T06:01:44.882Z,6.27
2023-03-26T06:04:16.239Z,6.32
2023-03-26T06:06:43.107Z,6.25
2023-03-26T06:09:09.749Z,6.36
2023-03-26T06:11:36.484Z,6.33
2023-03-26T06:14:03.288Z,6.38
2023-03-26T06:16:29.930Z,6.46
2023-03-26T06:18:57.848Z,6.44
2023-03-26T06:21:28.847Z,6.50
2023-03-26T06:23:56.455Z,6.49
2023-03-26T06:26:23.034Z,6.59
2023-03-26T06:28:49.960Z,6.68
2023-03-26T06:31:17.669Z,6.74
2023-03-26T06:33:44.234Z,6.85
2023-03-26T06:36:10.962Z,6.90
2023-03-26T06:38:37.661Z,6.92
2023-03-26T06:41:06.417Z,6.91
2023-03-26T06:43:33.996Z,7.08
2023-03-26T06:46:04.447Z,7.03
2023-03-26T06:48:31.428Z,7.08
2023-03-26T06:50:58.238Z,7.26
2023-03-26T06:53:24.975Z,7.19
2023-03-26T06:55:53.883Z,7.18
2023-03-26T06:58:20.643Z,7.33
2023-03-26T07:00:47.320Z,7.48
2023-03-26T07:03:13.907Z,7.46
2023-03-26T07:05:43.661Z,7.44
2023-03-26T07:08:10.512Z,7.69
2023-03-26T07:10:37.053Z,7.86
2023-03-26T07:13:03.583Z,7.79
2023-03-26T07:15:30.443Z,7.84
2023-03-26T07:17:57.114Z,7.95
2023-03-26T07:20:24.391Z,7.98
2023-03-26T07:22:52.010Z,7.95
2023-03-26T07:25:19.392Z,7.87
2023-03-26T07:27:46.077Z,7.85
2023-03-26T07:30:16.336Z,7.92
2023-03-26T07:32:49.154Z,7.87
2023-03-26T07:35:33.988Z,7.96
2023-03-26T07:38:12.760Z,8.13
2023-03-26T07:40:50.437Z,8.25
2023-03-26T07:43:30.589Z,8.10
2023-03-26T07:45:57.703Z,8.20
2023-03-26T07:48:27.497Z,8.23
2023-03-26T07:50:55.530Z,8.19
2023-03-26T07:53:23.136Z,8.37
2023-03-26T07:55:58.034Z,8.15
2023-03-26T07:58:37.704Z,8.44
2023-03-26T08:01:23.315Z,8.45
2023-03-26T08:04:24.575Z,8.52
2023-03-26T08:07:04.966Z,8.55
2023-03-26T08:09:58.901Z,8.39
2023-03-26T08:12:48.323Z,8.30
2023-03-26T08:15:33.875Z,8.20
2023-03-26T08:18:22.016Z,8.34
2023-03-26T08:21:14.478Z,8.32
2023-03-26T08:24:22.990Z,8.33
2023-03-26T08:27:19.452Z,8.23
2023-03-26T08:30:02.375Z,8.05
2023-03-26T08:32:29.272Z,7.98
2023-03-26T08:34:57.794Z,7.88
2023-03-26T08:37:24.794Z,8.04
2023-03-26T08:39:51.420Z,8.07
2023-03-26T08:42:45.997Z,7.93
2023-03-26T08:45:38.899Z,7.92
2023-03-26T08:48:26.828Z,7.81
2023-03-26T08:51:05.789Z,8.15
2023-03-26T08:53:48.104Z,8.02
2023-03-26T08:56:20.651Z,8.08
2023-03-26T08:58:59.178Z,7.89
2023-03-26T09:02:02.307Z,8.00
2023-03-26T09:04:42.692Z,7.96
2023-03-26T09:07:33.906Z,7.93
2023-03-26T09:10:16.053Z,7.84
2023-03-26T09:15:47.069Z,7.89
2023-03-26T09:18:51.805Z,7.90
2023-03-26T09:21:37.031Z,7.81
2023-03-26T09:24:09.704Z,7.82
2023-03-26T09:26:53.146Z,7.72
2023-03-26T09:29:51.843Z,8.00
2023-03-26T09:32:56.227Z,7.76
2023-03-26T09:35:50.075Z,7.90
2023-03-26T09:38:33.552Z,7.66
2023-03-26T09:41:27.883Z,7.48
2023-03-26T09:44:20.327Z,7.41
2023-03-26T09:47:21.791Z,7.46
2023-03-26T09:50:19.719Z,7.36
2023-03-26T09:53:37.464Z,7.30
2023-03-26T09:56:26.639Z,7.43
2023-03-26T09:59:07.024Z,7.35
2023-03-26T10:01:58.600Z,7.34
2023-03-26T10:04:46.044Z,7.15
2023-03-26T10:07:30.242Z,7.23
2023-03-26T10:10:25.988Z,7.05
2023-03-26T10:13:15.045Z,7.08
2023-03-26T10:16:33.218Z,7.05
2023-03-26T10:19:20.388Z,7.11
2023-03-26T10:22:02.086Z,7.03
2023-03-26T10:24:48.576Z,7.01
2023-03-26T10:27:49.812Z,7.14
2023-03-26T10:30:35.222Z,7.23
2023-03-26T10:33:12.658Z,7.15
2023-03-26T10:35:56.665Z,7.11
2023-03-26T10:38:54.792Z,7.13
2023-03-26T10:41:51.476Z,7.10
2023-03-26T10:44:54.818Z,7.48
2023-03-26T10:47:55.036Z,7.34
2023-03-26T10:50:35.974Z,7.46
2023-03-26T10:53:25.941Z,7.44
2023-03-26T10:56:00.337Z,7.42
2023-03-26T10:58:29.590Z,7.23
2023-03-26T11:01:28.316Z,7.41
2023-03-26T11:03:56.678Z,7.31
2023-03-26T11:06:56.532Z,7.07
2023-03-26T11:09:39.859Z,6.99
2023-03-26T11:12:27.281Z,7.26
2023-03-26T11:15:04.103Z,7.25
2023-03-26T11:17:57.018Z,7.40
2023-03-26T11:20:44.047Z,7.56
2023-03-26T11:23:21.570Z,7.35
2023-03-26T11:26:03.301Z,7.80
2023-03-26T11:29:03.592Z,7.86
2023-03-26T11:31:55.385Z,7.73
2023-03-26T11:34:29.685Z,8.29
2023-03-26T11:36:58.961Z,8.24
2023-03-26T11:39:33.167Z,8.78
2023-03-26T11:42:08.104Z,8.68
2023-03-26T11:44:39.507Z,8.78
2023-03-26T11:47:12.450Z,8.48
2023-03-26T11:49:39.916Z,8.51
2023-03-26T11:52:07.683Z,8.59
2023-03-26T11:54:34.211Z,8.68
2023-03-26T11:57:07.252Z,9.03
2023-03-26T11:59:45.306Z,8.94
2023-03-26T12:02:25.407Z,8.82
2023-03-26T12:05:02.845Z,8.77
2023-03-26T12:07:34.551Z,8.84
2023-03-26T12:10:18.145Z,8.81
2023-03-26T12:12:47.612Z,8.77
2023-03-26T12:15:16.311Z,8.62
2023-03-26T12:17:43.281Z,8.38
2023-03-26T12:20:33.115Z,8.28
2023-03-26T12:23:02.355Z,8.22
2023-03-26T12:25:34.921Z,8.19
2023-03-26T12:28:14.064Z,8.11
2023-03-26T12:31:01.432Z,8.40
2023-03-26T12:33:30.273Z,8.52
2023-03-26T12:36:01.043Z,8.62
2023-03-26T12:38:33.991Z,8.86
2023-03-26T12:41:08.115Z,9.29
2023-03-26T12:44:55.973Z,9.14
2023-03-26T12:47:54.619Z,9.46
2023-03-26T12:49:19.673Z,9.38
2023-03-26T12:52:07.647Z,9.37
2023-03-26T12:54:48.507Z,9.36
2023-03-26T12:57:20.532Z,9.40
2023-03-26T13:00:37.776Z,9.62
2023-03-26T13:03:38.048Z,9.72
2023-03-26T13:07:01.716Z,9.55
2023-03-26T13:09:56.090Z,9.51
2023-03-26T13:12:45.580Z,9.63
2023-03-26T13:15:22.698Z,9.74
2023-03-26T13:18:27.386Z,9.68
2023-03-26T13:21:12.530Z,9.64
2023-03-26T13:23:53.665Z,9.79
2023-03-26T13:26:58.644Z,10.13
2023-03-26T13:29:25.791Z,10.49
2023-03-26T13:32:25.895Z,10.04
2023-03-26T13:35:07.778Z,10.25
2023-03-26T13:37:52.357Z,10.37
2023-03-26T13:40:45.026Z,10.34
2023-03-26T13:43:33.311Z,10.37
2023-03-26T13:46:35.081Z,10.20
2023-03-26T13:49:13.716Z,10.13
2023-03-26T13:51:53.778Z,10.35
2023-03-26T13:54:31.365Z,10.32
2023-03-26T13:57:12.623Z,10.22
2023-03-26T13:59:56.928Z,10.48
2023-03-26T14:03:06.661Z,10.70
2023-03-26T14:05:57.340Z,10.46
2023-03-26T14:08:36.870Z,10.51
2023-03-26T14:11:16.616Z,10.36
2023-03-26T14:13:53.082Z,10.32
2023-03-26T14:16:29.453Z,10.30
2023-03-26T14:19:22.562Z,10.20
2023-03-26T14:21:54.976Z,10.64
2023-03-26T14:24:58.960Z,10.43
2023-03-26T14:27:44.468Z,10.51
2023-03-26T14:30:11.487Z,10.52
2023-03-26T14:32:53.167Z,10.61
2023-03-26T14:35:57.382Z,10.88
2023-03-26T14:39:09.590Z,10.89
2023-03-26T14:41:48.065Z,10.92
2023-03-26T14:44:48.901Z,10.91
2023-03-26T14:47:16.109Z,10.93
2023-03-26T14:50:04.392Z,10.89
2023-03-26T14:52:46.681Z,10.85
2023-03-26T14:55:23.939Z,11.13
2023-03-26T14:58:02.230Z,10.81
2023-03-26T15:01:04.248Z,10.82
2023-03-26T15:03:52.837Z,10.73
2023-03-26T15:06:51.297Z,10.72
2023-03-26T15:09:56.033Z,10.86
2023-03-26T15:12:46.655Z,10.96
2023-03-26T15:15:34.564Z,11.16
2023-03-26T15:18:33.450Z,11.01
2023-03-26T15:21:28.065Z,11.15
2023-03-26T15:24:03.681Z,11.09
2023-03-26T15:27:27.507Z,11.27
2023-03-26T15:30:12.650Z,11.33
2023-03-26T15:33:05.274Z,11.43
2023-03-26T15:35:56.974Z,11.41
2023-03-26T15:38:51.728Z,11.48
2023-03-26T15:41:30.308Z,11.53
2023-03-26T15:46:38.386Z,11.68
2023-03-26T15:49:45.630Z,11.46
2023-03-26T15:52:22.280Z,11.42
2023-03-26T15:55:22.660Z,11.39
2023-03-26T15:58:19.679Z,11.34
2023-03-26T16:01:21.236Z,11.17
2023-03-26T16:03:59.709Z,11.15
2023-03-26T16:06:41.546Z,11.07
2023-03-26T16:09:45.711Z,11.04
2023-03-26T16:12:12.183Z,11.21
2023-03-26T16:14:47.369Z,11.15
2023-03-26T16:17:20.783Z,11.14
2023-03-26T16:20:09.703Z,11.03
2023-03-26T16:22:44.814Z,11.25
2023-03-26T16:25:27.268Z,11.26
2023-03-26T16:28:11.007Z,11.28
2023-03-26T16:30:38.405Z,11.32
2023-03-26T16:33:18.890Z,11.14
2023-03-26T16:36:07.384Z,11.12
2023-03-26T16:39:13.605Z,11.12
2023-03-26T16:41:40.027Z,10.81
2023-03-26T16:44:13.896Z,10.87
2023-03-26T16:46:58.990Z,10.59
2023-03-26T16:49:41.605Z,10.58
2023-03-26T16:52:32.099Z,10.48
2023-03-26T16:55:22.990Z,10.51
2023-03-26T16:58:09.971Z,10.39
2023-03-26T17:00:48.179Z,10.33
2023-03-26T17:03:27.385Z,10.17
2023-03-26T17:05:57.093Z,10.17
2023-03-26T17:08:42.097Z,10.07
2023-03-26T17:11:25.894Z,10.00
2023-03-26T17:14:14.316Z,10.01
2023-03-26T17:17:26.389Z,9.99
2023-03-26T17:20:17.319Z,9.90
2023-03-26T17:22:56.973Z,9.86
2023-03-26T17:25:55.886Z,9.90
2023-03-26T17:28:45.036Z,9.79
2023-03-26T17:31:23.815Z,9.74
2023-03-26T17:33:50.795Z,9.76
2023-03-26T17:36:21.447Z,9.75
2023-03-26T17:38:47.923Z,9.65
2023-03-26T17:41:55.430Z,9.63
2023-03-26T17:44:58.437Z,9.71
2023-03-26T17:48:02.556Z,9.66
2023-03-26T17:50:42.151Z,9.55
2023-03-26T17:53:34.240Z,9.64
2023-03-26T17:56:05.755Z,9.48
2023-03-26T17:58:47.987Z,9.38
2023-03-26T18:01:42.305Z,9.37
2023-03-26T18:04:19.780Z,9.35
2023-03-26T18:07:27.895Z,9.30
2023-03-26T18:10:33.157Z,9.25
2023-03-26T18:13:19.469Z,9.22
2023-03-26T18:15:52.777Z,9.24
2023-03-26T18:18:34.677Z,9.15
2023-03-26T18:21:04.743Z,9.11
2023-03-26T18:23:44.485Z,9.05
2023-03-26T18:26:19.261Z,9.03
2023-03-26T18:28:53.899Z,8.98
2023-03-26T18:31:24.947Z,8.76
2023-03-26T18:33:57.179Z,8.56
2023-03-26T18:36:26.623Z,8.50
2023-03-26T18:38:58.763Z,8.43
2023-03-26T18:41:37.420Z,8.19
2023-03-26T18:44:06.221Z,8.30
2023-03-26T18:46:34.011Z,8.21
2023-03-26T18:49:03.076Z,8.13
2023-03-26T18:51:31.833Z,8.09
2023-03-26T18:54:01.427Z,8.11
2023-03-26T18:56:40.115Z,8.05
2023-03-26T18:59:20.606Z,7.96
2023-03-26T19:01:48.749Z,7.84
2023-03-26T19:04:16.288Z,7.80
2023-03-26T19:06:44.558Z,7.68
2023-03-26T19:09:28.073Z,7.58
2023-03-26T19:12:05.838Z,7.60
2023-03-26T19:14:37.039Z,7.44
2023-03-26T19:17:07.058Z,7.21
2023-03-26T19:19:37.486Z,7.19
2023-03-26T19:22:05.968Z,7.22
2023-03-26T19:24:33.414Z,7.18
2023-03-26T19:27:00.022Z,7.19
2023-03-26T19:29:33.996Z,7.06
2023-03-26T19:32:17.884Z,6.91
2023-03-26T19:34:46.504Z,6.89
2023-03-26T19:37:32.547Z,6.85
2023-03-26T19:40:20.519Z,6.84
2023-03-26T19:42:48.926Z,6.91
2023-03-26T19:45:20.810Z,6.83
2023-03-26T19:47:59.988Z,6.85
2023-03-26T19:50:36.639Z,6.85
2023-03-26T19:53:17.911Z,6.83
2023-03-26T19:56:15.448Z,6.83
2023-03-26T19:58:43.179Z,6.77
2023-03-26T20:01:19.263Z,6.87
2023-03-26T20:03:48.581Z,6.78
2023-03-26T20:06:17.805Z,6.70
2023-03-26T20:08:44.616Z,6.74
2023-03-26T20:11:18.959Z,6.69
2023-03-26T20:13:45.545Z,6.76
2023-03-26T20:16:33.769Z,6.79
2023-03-26T20:19:04.473Z,6.76
2023-03-26T20:21:32.715Z,6.81
2023-03-26T20:23:59.311Z,6.89
2023-03-26T20:26:25.946Z,6.87
2023-03-26T20:28:53.867Z,6.91
2023-03-26T20:31:25.360Z,6.88
2023-03-26T20:33:54.080Z,6.95
2023-03-26T20:36:32.984Z,6.80
2023-03-26T20:39:06.148Z,6.84
2023-03-26T20:41:33.834Z,6.82
2023-03-26T20:44:01.000Z,6.76
2023-03-26T20:46:31.267Z,6.76
2023-03-26T20:48:59.750Z,6.78
2023-03-26T20:51:30.464Z,6.77
2023-03-26T20:53:56.959Z,6.77
2023-03-26T20:56:23.612Z,6.76
2023-03-26T20:59:03.452Z,6.72
2023-03-26T21:01:35.033Z,6.75
2023-03-26T21:04:04.460Z,6.76
2023-03-26T21:06:31.558Z,6.75
2023-03-26T21:08:58.384Z,6.80
2023-03-26T21:11:43.011Z,6.79
2023-03-26T21:14:18.446Z,6.84
2023-03-26T21:16:45.507Z,6.88
2023-03-26T21:19:12.463Z,6.84
2023-03-26T21:21:52.856Z,6.76
2023-03-26T21:24:49.539Z,6.87
2023-03-26T21:27:22.972Z,6.85
2023-03-26T21:29:49.667Z,6.86
2023-03-26T21:32:16.427Z,6.86
2023-03-26T21:34:55.614Z,6.83
2023-03-26T21:37:25.001Z,6.75
2023-03-26T21:39:53.267Z,6.73
2023-03-26T21:42:20.015Z,6.71
2023-03-26T21:44:47.000Z,6.70
2023-03-26T21:47:14.161Z,6.61
2023-03-26T21:49:41.407Z,6.65
2023-03-26T21:52:14.644Z,6.66
2023-03-26T21:54:43.329Z,6.63
2023-03-26T21:57:34.745Z,6.61
2023-03-26T22:00:15.394Z,6.52
2023-03-26T22:03:03.306Z,6.41
2023-03-26T22:05:42.844Z,6.40
2023-03-26T22:08:24.713Z,6.37
2023-03-26T22:10:51.356Z,6.41
2023-03-26T22:13:17.871Z,6.29
2023-03-26T22:15:44.979Z,6.29
2023-03-26T22:18:11.965Z,6.30
2023-03-26T22:20:38.626Z,6.36
2023-03-26T22:23:06.823Z,6.30
2023-03-26T22:25:33.368Z,6.21
2023-03-26T22:27:59.950Z,6.25
2023-03-26T22:30:27.368Z,6.19
2023-03-26T22:32:54.102Z,6.23
2023-03-26T22:35:20.718Z,6.22
2023-03-26T22:37:47.545Z,6.18
2023-03-26T22:40:14.110Z,6.21
2023-03-26T22:42:41.649Z,6.27
2023-03-26T22:45:09.540Z,6.34
2023-03-26T22:47:36.252Z,6.29
2023-03-26T22:50:04.424Z,6.39
2023-03-26T22:52:31.504Z,6.23
2023-03-26T22:54:58.155Z,6.23
2023-03-26T22:57:24.745Z,6.29
2023-03-26T22:59:52.210Z,6.27
2023-03-26T23:02:19.429Z,6.36
2023-03-26T23:04:47.882Z,6.23
2023-03-26T23:07:14.876Z,6.22
2023-03-26T23:09:41.730Z,6.29
2023-03-26T23:12:08.708Z,6.25
2023-03-26T23:14:36.351Z,6.16
2023-03-26T23:17:02.985Z,6.19
2023-03-26T23:19:30.195Z,6.18
2023-03-26T23:21:57.546Z,6.26
2023-03-26T23:24:26.640Z,6.24
2023-03-26T23:26:53.350Z,6.30
2023-03-26T23:29:20.316Z,6.20
2023-03-26T23:31:47.382Z,6.16
2023-03-26T23:34:14.325Z,6.15
2023-03-26T23:36:41.983Z,6.11
2023-03-26T23:39:08.902Z,6.13
2023-03-26T23:41:36.885Z,6.06
2023-03-26T23:44:03.981Z,6.11
2023-03-26T23:46:33.169Z,6.04
2023-03-26T23:49:02.562Z,6.11
2023-03-26T23:51:30.430Z,6.08
2023-03-26T23:53:57.190Z,6.00
2023-03-26T23:56:23.990Z,6.08
2023-03-26T23:58:50.625Z,5.97
